Time,TemperatureF,DewpointF,PressureIn,WindDirection,WindDirectionDegrees,WindSpeedMPH,WindSpeedGustMPH,Humidity,HourlyPrecipIn,Conditions,Clouds,dailyrainin,SolarRadiationWatts/m^2,SoftwareType,DateUTC
2013-03-06 00:13:00,47.3,36.0,29.66,SSW,197,0.0,1.0,66,0.00,,,0.00,0,weatherlink.com 1.10,2013-03-05 23:13:00,
2013-03-06 00:28:00,46.7,37.0,29.65,SSW,196,0.0,2.0,68,0.00,,,0.00,0,weatherlink.com 1.10,2013-03-05 23:28:00,
2013-03-06 00:43:00,46.4,37.0,29.65,SSW,196,0.0,0.0,69,0.00,,,0.00,0,weatherlink.com 1.10,2013-03-05 23:43:00,
2013-03-06 00:58:00,46.5,37.0,29.65,SSW,197,0.0,0.0,69,0.00,,,0.00,0,weatherlink.com 1.10,2013-03-05 23:58:00,
2013-03-06 01:14:00,46.8,37.0,29.65,SSW,197,0.0,0.0,68,0.00,,,0.00,0,weatherlink.com 1.10,2013-03-06 00:14:00,
2013-03-06 01:29:00,46.5,37.0,29.64,SSW,196,0.0,0.0,69,0.00,,,0.00,0,weatherlink.com 1.10,2013-03-06 00:29:00,
2013-03-06 01:44:00,46.0,37.0,29.64,SSW,196,0.0,2.0,70,0.00,,,0.00,0,weatherlink.com 1.10,2013-03-06 00:44:00,
2013-03-06 01:59:00,45.8,37.0,29.64,SSW,197,0.0,0.0,70,0.00,,,0.00,0,weatherlink.com 1.10,2013-03-06 00:59:00,
2013-03-06 02:15:00,46.1,36.0,29.64,SSW,197,0.0,0.0,69,0.00,,,0.00,0,weatherlink.com 1.10,2013-03-06 01:15:00,
2013-03-06 02:30:00,46.3,37.0,29.63,SSW,197,0.0,0.0,69,0.00,,,0.00,0,weatherlink.com 1.10,2013-03-06 01:30:00,
2013-03-06 02:45:00,46.7,37.0,29.63,SSW,197,0.0,2.0,69,0.00,,,0.00,0,weatherlink.com 1.10,2013-03-06 01:45:00,
2013-03-06 03:00:00,47.0,37.0,29.62,SSW,196,0.0,0.0,68,0.00,,,0.00,0,weatherlink.com 1.10,2013-03-06 02:00:00,
2013-03-06 03:17:00,47.0,37.0,29.62,SSW,196,0.0,1.0,69,0.00,,,0.00,0,weatherlink.com 1.10,2013-03-06 02:17:00,
2013-03-06 03:32:00,46.9,37.0,29.62,SSW,197,0.0,2.0,68,0.00,,,0.00,0,weatherlink.com 1.10,2013-03-06 02:32:00,
2013-03-06 03:47:00,47.0,37.0,29.61,SSW,197,0.0,0.0,68,0.00,,,0.00,0,weatherlink.com 1.10,2013-03-06 02:47:00,
2013-03-06 04:02:00,46.9,37.0,29.61,SSW,196,0.0,0.0,68,0.00,,,0.00,0,weatherlink.com 1.10,2013-03-06 03:02:00,
2013-03-06 04:17:00,46.7,37.0,29.61,SSW,197,0.0,0.0,68,0.00,,,0.00,0,weatherlink.com 1.10,2013-03-06 03:17:00,
2013-03-06 04:32:00,46.0,37.0,29.61,SSW,197,0.0,0.0,70,0.00,,,0.00,0,weatherlink.com 1.10,2013-03-06 03:32:00,
2013-03-06 04:47:00,44.5,36.0,29.61,SSW,197,0.0,0.0,72,0.00,,,0.00,0,weatherlink.com 1.10,2013-03-06 03:47:00,
2013-03-06 05:03:00,43.6,36.0,29.61,SSW,197,0.0,0.0,74,0.00,,,0.00,0,weatherlink.com 1.10,2013-03-06 04:03:00,
2013-03-06 05:19:00,43.4,36.0,29.60,SSW,197,0.0,0.0,74,0.00,,,0.00,0,weatherlink.com 1.10,2013-03-06 04:19:00,
2013-03-06 05:33:00,43.3,36.0,29.60,SSW,197,0.0,0.0,75,0.00,,,0.00,0,weatherlink.com 1.10,2013-03-06 04:33:00,
2013-03-06 05:48:00,43.3,36.0,29.60,SSW,197,0.0,0.0,75,0.00,,,0.00,0,weatherlink.com 1.10,2013-03-06 04:48:00,
2013-03-06 06:03:00,43.3,36.0,29.60,SSW,197,0.0,0.0,75,0.00,,,0.00,0,weatherlink.com 1.10,2013-03-06 05:03:00,
2013-03-06 06:19:00,43.5,36.0,29.60,SSW,197,0.0,0.0,75,0.00,,,0.00,0,weatherlink.com 1.10,2013-03-06 05:19:00,
2013-03-06 06:35:00,43.9,36.0,29.59,SSW,197,0.0,0.0,75,0.00,,,0.00,0,weatherlink.com 1.10,2013-03-06 05:35:00,
2013-03-06 06:49:00,44.2,37.0,29.59,SSW,196,0.0,0.0,76,0.00,,,0.00,0,weatherlink.com 1.10,2013-03-06 05:49:00,
2013-03-06 07:05:00,44.3,37.0,29.59,SSW,196,0.0,0.0,76,0.00,,,0.00,0,weatherlink.com 1.10,2013-03-06 06:05:00,
2013-03-06 07:20:00,44.6,37.0,29.59,SSW,196,0.0,0.0,76,0.00,,,0.00,0,weatherlink.com 1.10,2013-03-06 06:20:00,
2013-03-06 07:35:00,44.9,37.0,29.59,SSW,197,0.0,0.0,75,0.00,,,0.00,9,weatherlink.com 1.10,2013-03-06 06:35:00,
2013-03-06 08:07:00,45.9,38.0,29.59,SSW,197,0.0,0.0,75,0.00,,,0.00,21,weatherlink.com 1.10,2013-03-06 07:07:00,
2013-03-06 08:22:00,45.8,38.0,29.59,SSW,196,0.0,0.0,75,0.00,,,0.00,35,weatherlink.com 1.10,2013-03-06 07:22:00,
2013-03-06 08:37:00,46.3,39.0,29.59,SSW,196,0.0,0.0,75,0.00,,,0.00,39,weatherlink.com 1.10,2013-03-06 07:37:00,
2013-03-06 08:52:00,46.8,40.0,29.59,SSW,197,0.0,0.0,76,0.00,,,0.00,49,weatherlink.com 1.10,2013-03-06 07:52:00,
2013-03-06 09:07:00,47.3,39.0,29.60,SSW,197,0.0,0.0,74,0.00,,,0.00,135,weatherlink.com 1.10,2013-03-06 08:07:00,
2013-03-06 09:22:00,48.9,40.0,29.59,SSW,197,0.0,2.0,71,0.00,,,0.00,114,weatherlink.com 1.10,2013-03-06 08:22:00,
2013-03-06 09:38:00,50.6,40.0,29.60,SSW,197,0.0,4.0,66,0.00,,,0.00,127,weatherlink.com 1.10,2013-03-06 08:38:00,
2013-03-06 09:53:00,51.4,39.0,29.60,SSW,197,3.0,4.0,63,0.00,,,0.00,128,weatherlink.com 1.10,2013-03-06 08:53:00,
2013-03-06 10:08:00,52.3,39.0,29.60,SSW,196,1.0,6.0,60,0.00,,,0.00,186,weatherlink.com 1.10,2013-03-06 09:08:00,
2013-03-06 10:24:00,52.9,38.0,29.59,SSW,203,0.0,4.0,58,0.00,,,0.00,229,weatherlink.com 1.10,2013-03-06 09:24:00,
2013-03-06 10:38:00,54.1,37.0,29.59,SSW,203,0.0,4.0,53,0.00,,,0.00,227,weatherlink.com 1.10,2013-03-06 09:38:00,
2013-03-06 10:54:00,55.4,39.0,29.59,SSW,203,0.0,0.0,54,0.00,,,0.00,221,weatherlink.com 1.10,2013-03-06 09:54:00,
2013-03-06 11:10:00,56.0,37.0,29.59,SSW,203,1.0,4.0,50,0.00,,,0.00,202,weatherlink.com 1.10,2013-03-06 10:10:00,
2013-03-06 11:24:00,56.4,37.0,29.58,SSW,200,0.0,6.0,48,0.00,,,0.00,278,weatherlink.com 1.10,2013-03-06 10:24:00,
2013-03-06 11:39:00,57.1,38.0,29.58,SSW,200,0.0,2.0,49,0.00,,,0.00,213,weatherlink.com 1.10,2013-03-06 10:39:00,
2013-03-06 11:56:00,57.8,36.0,29.58,SSW,200,0.0,5.0,45,0.00,,,0.00,271,weatherlink.com 1.10,2013-03-06 10:56:00,
2013-03-06 12:10:00,58.1,35.0,29.57,SSW,203,1.0,5.0,42,0.00,,,0.00,220,weatherlink.com 1.10,2013-03-06 11:10:00,
2013-03-06 12:25:00,58.3,35.0,29.57,SSW,203,3.0,4.0,42,0.00,,,0.00,264,weatherlink.com 1.10,2013-03-06 11:25:00,
2013-03-06 12:40:00,58.1,35.0,29.57,SSW,203,1.0,4.0,43,0.00,,,0.00,149,weatherlink.com 1.10,2013-03-06 11:40:00,
2013-03-06 12:57:00,57.8,36.0,29.56,SSW,203,0.0,3.0,45,0.00,,,0.00,176,weatherlink.com 1.10,2013-03-06 11:57:00,
2013-03-06 13:13:00,58.3,36.0,29.56,SSW,203,0.0,3.0,44,0.00,,,0.00,204,weatherlink.com 1.10,2013-03-06 12:13:00,
2013-03-06 13:27:00,59.0,36.0,29.55,SSW,203,0.0,3.0,43,0.00,,,0.00,281,weatherlink.com 1.10,2013-03-06 12:27:00,
2013-03-06 13:42:00,59.8,36.0,29.55,SSW,203,0.0,4.0,42,0.00,,,0.00,345,weatherlink.com 1.10,2013-03-06 12:42:00,
2013-03-06 13:58:00,60.9,34.0,29.54,SSW,203,0.0,4.0,37,0.00,,,0.00,401,weatherlink.com 1.10,2013-03-06 12:58:00,
2013-03-06 14:12:00,62.5,34.0,29.54,SSW,203,0.0,1.0,35,0.00,,,0.00,223,weatherlink.com 1.10,2013-03-06 13:12:00,
2013-03-06 14:28:00,64.1,37.0,29.53,East,81,0.0,3.0,37,0.00,,,0.00,248,weatherlink.com 1.10,2013-03-06 13:28:00,
2013-03-06 14:44:00,64.3,38.0,29.53,NE,53,0.0,5.0,38,0.00,,,0.00,258,weatherlink.com 1.10,2013-03-06 13:44:00,
2013-03-06 14:58:00,63.7,39.0,29.53,NNW,331,0.0,3.0,40,0.00,,,0.00,274,weatherlink.com 1.10,2013-03-06 13:58:00,
2013-03-06 15:13:00,63.8,42.0,29.53,NNW,330,0.0,3.0,46,0.00,,,0.00,267,weatherlink.com 1.10,2013-03-06 14:13:00,
2013-03-06 15:29:00,63.1,43.0,29.52,WNW,303,0.0,4.0,48,0.00,,,0.00,410,weatherlink.com 1.10,2013-03-06 14:29:00,
2013-03-06 15:45:00,66.4,44.0,29.52,NNE,12,2.0,4.0,44,0.00,,,0.00,315,weatherlink.com 1.10,2013-03-06 14:45:00,
2013-03-06 15:59:00,64.8,42.0,29.51,NNE,32,0.0,3.0,44,0.00,,,0.00,163,weatherlink.com 1.10,2013-03-06 14:59:00,
2013-03-06 16:14:00,64.0,44.0,29.51,NE,39,0.0,6.0,49,0.00,,,0.00,325,weatherlink.com 1.10,2013-03-06 15:14:00,
2013-03-06 16:30:00,63.0,43.0,29.51,ENE,57,5.0,8.0,49,0.00,,,0.00,220,weatherlink.com 1.10,2013-03-06 15:30:00,
2013-03-06 16:46:00,62.4,44.0,29.51,NE,48,4.0,6.0,51,0.00,,,0.00,132,weatherlink.com 1.10,2013-03-06 15:46:00,
2013-03-06 17:01:00,61.2,43.0,29.50,NE,42,1.0,5.0,52,0.00,,,0.00,79,weatherlink.com 1.10,2013-03-06 16:01:00,
2013-03-06 17:16:00,60.4,44.0,29.51,NE,46,0.0,4.0,56,0.00,,,0.00,104,weatherlink.com 1.10,2013-03-06 16:16:00,
2013-03-06 17:32:00,59.9,45.0,29.50,NE,45,0.0,1.0,58,0.00,,,0.00,67,weatherlink.com 1.10,2013-03-06 16:32:00,
2013-03-06 17:47:00,59.0,44.0,29.50,NE,45,0.0,3.0,59,0.00,,,0.00,37,weatherlink.com 1.10,2013-03-06 16:47:00,
2013-03-06 18:03:00,58.0,43.0,29.50,NE,45,0.0,3.0,58,0.00,,,0.00,16,weatherlink.com 1.10,2013-03-06 17:03:00,
2013-03-06 18:17:00,57.1,44.0,29.50,NE,53,0.0,3.0,61,0.00,,,0.00,7,weatherlink.com 1.10,2013-03-06 17:17:00,
2013-03-06 18:32:00,56.3,43.0,29.51,East,89,2.0,5.0,62,0.00,,,0.00,0,weatherlink.com 1.10,2013-03-06 17:32:00,
2013-03-06 18:47:00,55.6,42.0,29.51,NE,42,0.0,4.0,61,0.00,,,0.00,0,weatherlink.com 1.10,2013-03-06 17:47:00,
2013-03-06 19:03:00,54.7,40.0,29.52,East,90,0.0,5.0,59,0.00,,,0.00,0,weatherlink.com 1.10,2013-03-06 18:03:00,
2013-03-06 19:19:00,53.9,40.0,29.52,East,90,1.0,1.0,59,0.00,,,0.00,0,weatherlink.com 1.10,2013-03-06 18:19:00,
2013-03-06 19:34:00,53.2,40.0,29.51,East,90,0.0,0.0,61,0.00,,,0.00,0,weatherlink.com 1.10,2013-03-06 18:34:00,
2013-03-06 19:50:00,51.8,40.0,29.51,East,90,0.0,0.0,64,0.00,,,0.00,0,weatherlink.com 1.10,2013-03-06 18:50:00,
2013-03-06 20:04:00,50.4,40.0,29.51,East,90,0.0,0.0,68,0.00,,,0.00,0,weatherlink.com 1.10,2013-03-06 19:04:00,
2013-03-06 20:19:00,49.3,40.0,29.51,East,90,0.0,0.0,70,0.00,,,0.00,0,weatherlink.com 1.10,2013-03-06 19:19:00,
2013-03-06 20:35:00,48.7,40.0,29.51,East,90,0.0,0.0,72,0.00,,,0.00,0,weatherlink.com 1.10,2013-03-06 19:35:00,
2013-03-06 20:51:00,48.3,40.0,29.51,East,90,0.0,0.0,73,0.00,,,0.00,0,weatherlink.com 1.10,2013-03-06 19:51:00,
2013-03-06 21:05:00,48.0,39.0,29.51,East,90,0.0,0.0,72,0.00,,,0.00,0,weatherlink.com 1.10,2013-03-06 20:05:00,
2013-03-06 21:20:00,47.7,39.0,29.50,East,90,0.0,0.0,72,0.00,,,0.00,0,weatherlink.com 1.10,2013-03-06 20:20:00,
2013-03-06 21:36:00,47.3,39.0,29.50,East,90,0.0,0.0,72,0.00,,,0.00,0,weatherlink.com 1.10,2013-03-06 20:36:00,
2013-03-06 21:52:00,46.8,39.0,29.50,East,90,0.0,0.0,73,0.00,,,0.00,0,weatherlink.com 1.10,2013-03-06 20:52:00,
2013-03-06 22:07:00,46.4,38.0,29.50,East,90,0.0,0.0,73,0.00,,,0.00,0,weatherlink.com 1.10,2013-03-06 21:07:00,
2013-03-06 22:23:00,46.4,39.0,29.50,East,90,0.0,0.0,74,0.00,,,0.00,0,weatherlink.com 1.10,2013-03-06 21:23:00,
2013-03-06 22:38:00,46.4,38.0,29.50,East,90,0.0,0.0,73,0.00,,,0.00,0,weatherlink.com 1.10,2013-03-06 21:38:00,
2013-03-06 22:52:00,46.5,39.0,29.49,East,90,0.0,0.0,74,0.00,,,0.00,0,weatherlink.com 1.10,2013-03-06 21:52:00,
2013-03-06 23:08:00,46.3,38.0,29.49,East,90,0.0,0.0,73,0.00,,,0.00,0,weatherlink.com 1.10,2013-03-06 22:08:00,
2013-03-06 23:24:00,46.3,38.0,29.49,East,90,0.0,0.0,74,0.00,,,0.00,0,weatherlink.com 1.10,2013-03-06 22:24:00,
2013-03-06 23:38:00,46.3,39.0,29.49,East,90,0.0,0.0,75,0.00,,,0.00,0,weatherlink.com 1.10,2013-03-06 22:38:00,
2013-03-06 23:53:00,46.3,39.0,29.49,East,90,0.0,0.0,75,0.00,,,0.00,0,weatherlink.com 1.10,2013-03-06 22:53:00,